sensor_id;sensor_type;location;lat;lon;timestamp;pressure;altitude;pressure_sealevel;temperature;humidity
24825;BME280;12910;57.690;11.974;2023-03-18T00:00:27;99954.97;;;5.36;100.00
24825;BME280;12910;57.690;11.974;2023-03-18T00:02:53;99937.88;;;5.30;100.00
24825;BME280;12910;57.690;11.974;2023-03-18T00:05:19;99954.94;;;5.34;100.00
24825;BME280;12910;57.690;11.974;2023-03-18T00:07:44;99951.56;;;5.35;100.00
24825;BME280;12910;57.690;11.974;2023-03-18T00:10:11;99955.66;;;5.30;100.00
24825;BME280;12910;57.690;11.974;2023-03-18T00:12:38;99960.00;;;5.34;100.00
24825;BME280;12910;57.690;11.974;2023-03-18T00:15:06;99966.81;;;5.35;100.00
24825;BME280;12910;57.690;11.974;2023-03-18T00:17:32;99968.47;;;5.35;100.00
24825;BME280;12910;57.690;11.974;2023-03-18T00:19:57;99965.09;;;5.34;100.00
24825;BME280;12910;57.690;11.974;2023-03-18T00:22:30;99970.16;;;5.34;100.00
24825;BME280;12910;57.690;11.974;2023-03-18T00:24:55;99963.41;;;5.35;100.00
24825;BME280;12910;57.690;11.974;2023-03-18T00:27:21;99962.56;;;5.36;100.00
24825;BME280;12910;57.690;11.974;2023-03-18T00:29:46;99945.44;;;5.27;100.00
24825;BME280;12910;57.690;11.974;2023-03-18T00:32:12;99965.13;;;5.36;100.00
24825;BME280;12910;57.690;11.974;2023-03-18T00:34:37;99952.28;;;5.31;100.00
24825;BME280;12910;57.690;11.974;2023-03-18T00:37:03;99945.56;;;5.33;100.00
24825;BME280;12910;57.690;11.974;2023-03-18T00:39:29;99948.91;;;5.30;100.00
24825;BME280;12910;57.690;11.974;2023-03-18T00:41:57;99947.31;;;5.34;100.00
24825;BME280;12910;57.690;11.974;2023-03-18T00:44:23;99952.34;;;5.33;100.00
24825;BME280;12910;57.690;11.974;2023-03-18T00:46:50;99952.25;;;5.29;100.00
24825;BME280;12910;57.690;11.974;2023-03-18T00:49:16;99954.81;;;5.29;100.00
24825;BME280;12910;57.690;11.974;2023-03-18T00:51:42;99953.91;;;5.27;100.00
24825;BME280;12910;57.690;11.974;2023-03-18T00:54:10;99954.78;;;5.28;100.00
24825;BME280;12910;57.690;11.974;2023-03-18T00:56:37;99963.34;;;5.32;100.00
24825;BME280;12910;57.690;11.974;2023-03-18T00:59:04;99966.69;;;5.30;100.00
24825;BME280;12910;57.690;11.974;2023-03-18T01:01:30;99967.50;;;5.29;100.00
24825;BME280;12910;57.690;11.974;2023-03-18T01:03:56;99976.84;;;5.30;100.00
24825;BME280;12910;57.690;11.974;2023-03-18T01:06:25;99984.44;;;5.29;100.00
24825;BME280;12910;57.690;11.974;2023-03-18T01:08:54;99973.38;;;5.27;100.00
24825;BME280;12910;57.690;11.974;2023-03-18T01:11:20;99976.75;;;5.27;100.00
24825;BME280;12910;57.690;11.974;2023-03-18T01:13:46;99962.28;;;5.23;100.00
24825;BME280;12910;57.690;11.974;2023-03-18T01:16:12;99964.13;;;5.29;100.00
24825;BME280;12910;57.690;11.974;2023-03-18T01:18:39;99969.22;;;5.30;100.00
24825;BME280;12910;57.690;11.974;2023-03-18T01:21:06;99975.13;;;5.29;100.00
24825;BME280;12910;57.690;11.974;2023-03-18T01:23:33;99967.34;;;5.23;100.00
24825;BME280;12910;57.690;11.974;2023-03-18T01:25:59;99976.66;;;5.24;100.00
24825;BME280;12910;57.690;11.974;2023-03-18T01:28:25;99966.59;;;5.27;100.00
24825;BME280;12910;57.690;11.974;2023-03-18T01:30:51;99970.03;;;5.28;100.00
24825;BME280;12910;57.690;11.974;2023-03-18T01:33:17;99966.59;;;5.27;100.00
24825;BME280;12910;57.690;11.974;2023-03-18T01:35:44;99968.31;;;5.28;100.00
24825;BME280;12910;57.690;11.974;2023-03-18T01:38:11;99964.81;;;5.23;100.00
24825;BME280;12910;57.690;11.974;2023-03-18T01:40:37;99981.84;;;5.27;100.00
24825;BME280;12910;57.690;11.974;2023-03-18T01:43:13;99993.63;;;5.25;100.00
24825;BME280;12910;57.690;11.974;2023-03-18T01:45:43;99996.16;;;5.24;100.00
24825;BME280;12910;57.690;11.974;2023-03-18T01:48:17;99996.94;;;5.21;100.00
24825;BME280;12910;57.690;11.974;2023-03-18T01:50:44;99996.94;;;5.21;100.00
24825;BME280;12910;57.690;11.974;2023-03-18T01:53:13;99993.56;;;5.22;100.00
24825;BME280;12910;57.690;11.974;2023-03-18T01:55:40;99989.31;;;5.21;100.00
24825;BME280;12910;57.690;11.974;2023-03-18T01:58:20;99992.66;;;5.20;100.00
24825;BME280;12910;57.690;11.974;2023-03-18T02:01:17;99991.06;;;5.24;100.00
24825;BME280;12910;57.690;11.974;2023-03-18T02:03:44;99989.34;;;5.23;100.00
24825;BME280;12910;57.690;11.974;2023-03-18T02:06:11;99985.94;;;5.22;100.00
24825;BME280;12910;57.690;11.974;2023-03-18T02:08:37;99981.81;;;5.26;100.00
24825;BME280;12910;57.690;11.974;2023-03-18T02:11:05;99980.06;;;5.23;100.00
24825;BME280;12910;57.690;11.974;2023-03-18T02:13:34;99978.16;;;5.16;100.00
24825;BME280;12910;57.690;11.974;2023-03-18T02:16:07;99988.50;;;5.22;100.00
24825;BME280;12910;57.690;11.974;2023-03-18T02:18:36;99986.75;;;5.21;100.00
24825;BME280;12910;57.690;11.974;2023-03-18T02:21:22;99993.63;;;5.25;100.00
24825;BME280;12910;57.690;11.974;2023-03-18T02:27:12;100001.25;;;5.25;100.00
24825;BME280;12910;57.690;11.974;2023-03-18T02:29:39;99997.00;;;5.24;100.00
24825;BME280;12910;57.690;11.974;2023-03-18T02:32:06;100002.03;;;5.23;100.00
24825;BME280;12910;57.690;11.974;2023-03-18T02:34:34;99996.94;;;5.21;100.00
24825;BME280;12910;57.690;11.974;2023-03-18T02:37:01;100000.38;;;5.23;100.00
24825;BME280;12910;57.690;11.974;2023-03-18T02:39:27;100002.06;;;5.24;100.00
24825;BME280;12910;57.690;11.974;2023-03-18T02:41:55;99999.50;;;5.23;100.00
24825;BME280;12910;57.690;11.974;2023-03-18T02:44:20;99999.50;;;5.23;100.00
24825;BME280;12910;57.690;11.974;2023-03-18T02:49:12;100004.59;;;5.23;100.00
24825;BME280;12910;57.690;11.974;2023-03-18T02:51:39;100008.03;;;5.25;100.00
24825;BME280;12910;57.690;11.974;2023-03-18T02:54:15;100008.03;;;5.25;100.00
24825;BME280;12910;57.690;11.974;2023-03-18T02:56:42;100007.09;;;5.21;100.00
24825;BME280;12910;57.690;11.974;2023-03-18T02:59:08;100001.25;;;5.25;100.00
24825;BME280;12910;57.690;11.974;2023-03-18T03:01:34;100002.97;;;5.26;100.00
24825;BME280;12910;57.690;11.974;2023-03-18T03:04:01;99997.88;;;5.25;100.00
24825;BME280;12910;57.690;11.974;2023-03-18T03:06:26;99998.72;;;5.25;100.00
24825;BME280;12910;57.690;11.974;2023-03-18T03:08:52;99991.91;;;5.24;100.00
24825;BME280;12910;57.690;11.974;2023-03-18T03:11:19;99996.19;;;5.25;100.00
24825;BME280;12910;57.690;11.974;2023-03-18T03:13:45;99993.63;;;5.25;100.00
24825;BME280;12910;57.690;11.974;2023-03-18T03:16:12;99989.44;;;5.26;100.00
24825;BME280;12910;57.690;11.974;2023-03-18T03:18:38;99978.34;;;5.22;100.00
24825;BME280;12910;57.690;11.974;2023-03-18T03:21:05;99990.22;;;5.23;100.00
24825;BME280;12910;57.690;11.974;2023-03-18T03:23:32;99992.75;;;5.23;100.00
24825;BME280;12910;57.690;11.974;2023-03-18T03:25:57;99981.69;;;5.21;100.00
24825;BME280;12910;57.690;11.974;2023-03-18T03:28:23;99987.63;;;5.22;100.00
24825;BME280;12910;57.690;11.974;2023-03-18T03:30:48;99983.31;;;5.19;100.00
24825;BME280;12910;57.690;11.974;2023-03-18T03:33:14;99986.75;;;5.21;100.00
24825;BME280;12910;57.690;11.974;2023-03-18T03:35:40;99991.97;;;5.26;100.00
24825;BME280;12910;57.690;11.974;2023-03-18T03:38:06;99990.22;;;5.23;100.00
24825;BME280;12910;57.690;11.974;2023-03-18T03:40:31;99993.72;;;5.28;100.00
24825;BME280;12910;57.690;11.974;2023-03-18T03:42:57;99977.31;;;5.17;100.00
24825;BME280;12910;57.690;11.974;2023-03-18T03:45:22;99981.75;;;5.24;100.00
24825;BME280;12910;57.690;11.974;2023-03-18T03:47:47;99990.38;;;5.29;100.00
24825;BME280;12910;57.690;11.974;2023-03-18T03:50:14;99993.72;;;5.28;100.00
24825;BME280;12910;57.690;11.974;2023-03-18T03:52:40;99993.72;;;5.28;100.00
24825;BME280;12910;57.690;11.974;2023-03-18T03:55:09;100000.44;;;5.26;100.00
24825;BME280;12910;57.690;11.974;2023-03-18T03:57:35;99995.19;;;5.20;100.00
24825;BME280;12910;57.690;11.974;2023-03-18T04:00:03;99998.72;;;5.25;100.00
24825;BME280;12910;57.690;11.974;2023-03-18T04:02:29;100007.16;;;5.24;100.00
24825;BME280;12910;57.690;11.974;2023-03-18T04:04:54;99987.41;;;5.14;100.00
24825;BME280;12910;57.690;11.974;2023-03-18T04:07:20;100017.31;;;5.24;100.00
24825;BME280;12910;57.690;11.974;2023-03-18T04:09:45;100003.63;;;5.19;100.00
24825;BME280;12910;57.690;11.974;2023-03-18T04:12:11;100013.81;;;5.19;100.00
24825;BME280;12910;57.690;11.974;2023-03-18T04:14:36;100012.06;;;5.18;100.00
24825;BME280;12910;57.690;11.974;2023-03-18T04:17:02;100016.38;;;5.21;100.00
24825;BME280;12910;57.690;11.974;2023-03-18T04:19:28;100012.03;;;5.17;100.00
24825;BME280;12910;57.690;11.974;2023-03-18T04:21:54;100010.34;;;5.17;100.00
24825;BME280;12910;57.690;11.974;2023-03-18T04:24:21;100003.53;;;5.16;100.00
24825;BME280;12910;57.690;11.974;2023-03-18T04:26:47;99996.72;;;5.15;100.00
24825;BME280;12910;57.690;11.974;2023-03-18T04:29:12;99994.13;;;5.12;100.00
24825;BME280;12910;57.690;11.974;2023-03-18T04:31:38;99998.44;;;5.14;100.00
24825;BME280;12910;57.690;11.974;2023-03-18T04:34:03;100000.13;;;5.14;100.00
24825;BME280;12910;57.690;11.974;2023-03-18T04:36:28;99997.47;;;5.09;100.00
24825;BME280;12910;57.690;11.974;2023-03-18T04:38:54;99997.47;;;5.09;100.00
24825;BME280;12910;57.690;11.974;2023-03-18T04:41:21;99999.09;;;5.07;100.00
24825;BME280;12910;57.690;11.974;2023-03-18T04:43:46;99998.03;;;5.01;100.00
24825;BME280;12910;57.690;11.974;2023-03-18T04:46:13;99996.53;;;5.07;100.00
24825;BME280;12910;57.690;11.974;2023-03-18T04:48:39;99988.03;;;5.07;100.00
24825;BME280;12910;57.690;11.974;2023-03-18T04:51:05;99995.72;;;5.08;100.00
24825;BME280;12910;57.690;11.974;2023-03-18T04:53:32;99998.19;;;5.07;100.00
24825;BME280;12910;57.690;11.974;2023-03-18T04:55:58;100012.56;;;5.05;100.00
24825;BME280;12910;57.690;11.974;2023-03-18T04:58:24;100012.59;;;5.06;100.00
24825;BME280;12910;57.690;11.974;2023-03-18T05:00:50;100010.03;;;5.05;100.00
24825;BME280;12910;57.690;11.974;2023-03-18T05:03:15;100013.38;;;5.04;100.00
24825;BME280;12910;57.690;11.974;2023-03-18T05:05:41;100015.09;;;5.05;100.00
24825;BME280;12910;57.690;11.974;2023-03-18T05:08:06;100007.34;;;5.00;100.00
24825;BME280;12910;57.690;11.974;2023-03-18T05:10:32;100013.44;;;5.07;100.00
24825;BME280;12910;57.690;11.974;2023-03-18T05:12:57;100027.06;;;5.09;100.00
24825;BME280;12910;57.690;11.974;2023-03-18T05:15:23;100015.91;;;5.04;100.00
24825;BME280;12910;57.690;11.974;2023-03-18T05:17:49;100021.94;;;5.07;100.00
24825;BME280;12910;57.690;11.974;2023-03-18T05:20:14;100013.38;;;5.04;100.00
24825;BME280;12910;57.690;11.974;2023-03-18T05:22:40;100022.88;;;5.11;100.00
24825;BME280;12910;57.690;11.974;2023-03-18T05:25:06;100025.44;;;5.11;100.00
24825;BME280;12910;57.690;11.974;2023-03-18T05:27:31;100034.78;;;5.12;100.00
24825;BME280;12910;57.690;11.974;2023-03-18T05:29:57;100024.41;;;5.06;100.00
24825;BME280;12910;57.690;11.974;2023-03-18T05:32:22;100032.25;;;5.12;100.00
24825;BME280;12910;57.690;11.974;2023-03-18T05:34:48;100037.38;;;5.15;100.00
24825;BME280;12910;57.690;11.974;2023-03-18T05:37:13;100037.38;;;5.15;100.00
24825;BME280;12910;57.690;11.974;2023-03-18T05:39:40;100038.22;;;5.14;100.00
24825;BME280;12910;57.690;11.974;2023-03-18T05:42:06;100039.88;;;5.13;100.00
24825;BME280;12910;57.690;11.974;2023-03-18T05:44:32;100043.34;;;5.15;100.00
24825;BME280;12910;57.690;11.974;2023-03-18T05:46:58;100039.09;;;5.16;100.00
24825;BME280;12910;57.690;11.974;2023-03-18T05:49:24;100043.34;;;5.15;100.00
24825;BME280;12910;57.690;11.974;2023-03-18T05:51:49;100035.59;;;5.11;100.00
24825;BME280;12910;57.690;11.974;2023-03-18T05:54:15;100038.13;;;5.11;100.00
24825;BME280;12910;57.690;11.974;2023-03-18T05:56:42;100043.09;;;5.08;100.00
24825;BME280;12910;57.690;11.974;2023-03-18T05:59:11;100036.16;;;5.02;100.00
24825;BME280;12910;57.690;11.974;2023-03-18T06:01:38;100040.56;;;5.08;100.00
24825;BME280;12910;57.690;11.974;2023-03-18T06:04:04;100040.53;;;5.06;100.00
24825;BME280;12910;57.690;11.974;2023-03-18T06:06:31;100038.78;;;5.04;100.00
24825;BME280;12910;57.690;11.974;2023-03-18T06:08:56;100042.13;;;5.03;100.00
24825;BME280;12910;57.690;11.974;2023-03-18T06:11:23;100035.31;;;5.02;100.00
24825;BME280;12910;57.690;11.974;2023-03-18T06:13:49;100043.78;;;5.02;100.00
24825;BME280;12910;57.690;11.974;2023-03-18T06:16:14;100039.53;;;5.01;100.00
24825;BME280;12910;57.690;11.974;2023-03-18T06:18:40;100043.75;;;5.01;100.00
24825;BME280;12910;57.690;11.974;2023-03-18T06:21:08;100043.84;;;5.04;100.00
24825;BME280;12910;57.690;11.974;2023-03-18T06:23:34;100046.28;;;5.01;100.00
24825;BME280;12910;57.690;11.974;2023-03-18T06:26:00;100044.53;;;4.98;100.00
24825;BME280;12910;57.690;11.974;2023-03-18T06:28:26;100052.97;;;4.97;100.00
24825;BME280;12910;57.690;11.974;2023-03-18T06:30:54;100058.91;;;4.97;100.00
24825;BME280;12910;57.690;11.974;2023-03-18T06:33:21;100057.16;;;4.96;100.00
24825;BME280;12910;57.690;11.974;2023-03-18T06:35:47;100067.31;;;4.96;100.00
24825;BME280;12910;57.690;11.974;2023-03-18T06:38:14;100065.66;;;4.97;100.00
24825;BME280;12910;57.690;11.974;2023-03-18T06:40:41;100063.22;;;5.00;100.00
24825;BME280;12910;57.690;11.974;2023-03-18T06:43:07;100050.34;;;4.95;100.00
24825;BME280;12910;57.690;11.974;2023-03-18T06:45:32;100081.03;;;5.02;100.00
24825;BME280;12910;57.690;11.974;2023-03-18T06:47:58;100080.16;;;5.01;100.00
24825;BME280;12910;57.690;11.974;2023-03-18T06:50:25;100083.63;;;5.03;100.00
24825;BME280;12910;57.690;11.974;2023-03-18T06:52:50;100068.25;;;4.98;100.00
24825;BME280;12910;57.690;11.974;2023-03-18T06:55:16;100079.41;;;5.04;100.00
24825;BME280;12910;57.690;11.974;2023-03-18T06:57:42;100084.50;;;5.04;100.00
24825;BME280;12910;57.690;11.974;2023-03-18T07:00:08;100086.97;;;5.02;100.00
24825;BME280;12910;57.690;11.974;2023-03-18T07:02:34;100084.38;;;5.01;100.00
24825;BME280;12910;57.690;11.974;2023-03-18T07:05:01;100083.53;;;5.00;100.00
24825;BME280;12910;57.690;11.974;2023-03-18T07:07:26;100082.56;;;4.96;100.00
24825;BME280;12910;57.690;11.974;2023-03-18T07:09:52;100083.44;;;4.97;100.00
24825;BME280;12910;57.690;11.974;2023-03-18T07:12:18;100093.88;;;5.06;100.00
24825;BME280;12910;57.690;11.974;2023-03-18T07:14:44;100088.84;;;5.08;100.00
24825;BME280;12910;57.690;11.974;2023-03-18T07:17:09;100092.28;;;5.10;100.00
24825;BME280;12910;57.690;11.974;2023-03-18T07:19:35;100089.63;;;5.07;100.00
24825;BME280;12910;57.690;11.974;2023-03-18T07:22:00;100094.81;;;5.10;100.00
24825;BME280;12910;57.690;11.974;2023-03-18T07:24:26;100092.28;;;5.10;100.00
24825;BME280;12910;57.690;11.974;2023-03-18T07:26:53;100096.66;;;5.14;100.00
24825;BME280;12910;57.690;11.974;2023-03-18T07:29:19;100098.31;;;5.13;100.00
24825;BME280;12910;57.690;11.974;2023-03-18T07:31:44;100096.81;;;5.20;100.00
24825;BME280;12910;57.690;11.974;2023-03-18T07:34:11;100091.56;;;5.14;100.00
24825;BME280;12910;57.690;11.974;2023-03-18T07:36:37;100103.53;;;5.18;100.00
24825;BME280;12910;57.690;11.974;2023-03-18T07:39:04;100107.09;;;5.23;100.00
24825;BME280;12910;57.690;11.974;2023-03-18T07:41:29;100109.63;;;5.23;100.00
24825;BME280;12910;57.690;11.974;2023-03-18T07:43:55;100109.53;;;5.20;100.00
24825;BME280;12910;57.690;11.974;2023-03-18T07:46:21;100108.78;;;5.24;100.00
24825;BME280;12910;57.690;11.974;2023-03-18T07:48:47;100100.28;;;5.22;100.00
24825;BME280;12910;57.690;11.974;2023-03-18T07:51:13;100106.25;;;5.24;100.00
24825;BME280;12910;57.690;11.974;2023-03-18T07:53:40;100101.22;;;5.26;100.00
24825;BME280;12910;57.690;11.974;2023-03-18T07:56:06;100094.41;;;5.25;100.00
24825;BME280;12910;57.690;11.974;2023-03-18T07:58:32;100096.06;;;5.24;100.00
24825;BME280;12910;57.690;11.974;2023-03-18T08:00:58;100097.91;;;5.28;100.00
24825;BME280;12910;57.690;11.974;2023-03-18T08:03:24;100107.28;;;5.31;100.00
24825;BME280;12910;57.690;11.974;2023-03-18T08:05:49;100107.41;;;5.36;100.00
24825;BME280;12910;57.690;11.974;2023-03-18T08:08:15;100107.34;;;5.33;100.00
24825;BME280;12910;57.690;11.974;2023-03-18T08:10:40;100115.13;;;5.37;100.00
24825;BME280;12910;57.690;11.974;2023-03-18T08:13:06;100115.03;;;5.36;100.00
24825;BME280;12910;57.690;11.974;2023-03-18T08:15:32;100115.00;;;5.34;100.00
24825;BME280;12910;57.690;11.974;2023-03-18T08:17:57;100115.13;;;5.37;100.00
24825;BME280;12910;57.690;11.974;2023-03-18T08:20:23;100107.50;;;5.37;100.00
24825;BME280;12910;57.690;11.974;2023-03-18T08:22:48;100114.34;;;5.40;100.00
24825;BME280;12910;57.690;11.974;2023-03-18T08:25:15;100116.22;;;5.47;100.00
24825;BME280;12910;57.690;11.974;2023-03-18T08:27:40;100106.81;;;5.43;100.00
24825;BME280;12910;57.690;11.974;2023-03-18T08:30:06;100106.03;;;5.45;100.00
24825;BME280;12910;57.690;11.974;2023-03-18T08:32:32;100101.06;;;5.50;100.00
24825;BME280;12910;57.690;11.974;2023-03-18T08:34:58;100120.91;;;5.64;100.00
24825;BME280;12910;57.690;11.974;2023-03-18T08:37:23;100115.78;;;5.60;100.00
24825;BME280;12910;57.690;11.974;2023-03-18T08:39:48;100114.03;;;5.59;100.00
24825;BME280;12910;57.690;11.974;2023-03-18T08:42:14;100126.06;;;5.65;100.00
24825;BME280;12910;57.690;11.974;2023-03-18T08:44:40;100110.81;;;5.65;100.00
24825;BME280;12910;57.690;11.974;2023-03-18T08:47:06;100115.97;;;5.68;100.00
24825;BME280;12910;57.690;11.974;2023-03-18T08:49:32;100125.53;;;5.77;100.00
24825;BME280;12910;57.690;11.974;2023-03-18T08:51:57;100127.97;;;5.74;100.00
24825;BME280;12910;57.690;11.974;2023-03-18T08:54:23;100125.44;;;5.74;100.00
24825;BME280;12910;57.690;11.974;2023-03-18T08:56:48;100138.34;;;5.80;100.00
24825;BME280;12910;57.690;11.974;2023-03-18T08:59:14;100138.28;;;5.78;100.00
24825;BME280;12910;57.690;11.974;2023-03-18T09:01:39;100135.81;;;5.80;100.00
24825;BME280;12910;57.690;11.974;2023-03-18T09:04:05;100132.50;;;5.84;100.00
24825;BME280;12910;57.690;11.974;2023-03-18T09:06:30;100132.50;;;5.84;100.00
24825;BME280;12910;57.690;11.974;2023-03-18T09:08:56;100140.31;;;5.90;100.00
24825;BME280;12910;57.690;11.974;2023-03-18T09:11:23;100138.63;;;5.91;100.00
24825;BME280;12910;57.690;11.974;2023-03-18T09:13:48;100133.53;;;5.91;100.00
24825;BME280;12910;57.690;11.974;2023-03-18T09:16:14;100142.19;;;5.96;100.00
24825;BME280;12910;57.690;11.974;2023-03-18T09:18:39;100127.53;;;5.89;100.00
24825;BME280;12910;57.690;11.974;2023-03-18T09:21:05;100132.00;;;5.96;100.00
24825;BME280;12910;57.690;11.974;2023-03-18T09:23:31;100135.31;;;5.93;100.00
24825;BME280;12910;57.690;11.974;2023-03-18T09:25:57;100143.03;;;5.97;100.00
24825;BME280;12910;57.690;11.974;2023-03-18T09:28:24;100154.28;;;6.03;100.00
24825;BME280;12910;57.690;11.974;2023-03-18T09:30:50;100152.53;;;6.02;100.00
24825;BME280;12910;57.690;11.974;2023-03-18T09:33:16;100156.75;;;6.02;100.00
24825;BME280;12910;57.690;11.974;2023-03-18T09:35:41;100167.91;;;6.05;100.00
24825;BME280;12910;57.690;11.974;2023-03-18T09:38:12;100161.09;;;6.04;100.00
24825;BME280;12910;57.690;11.974;2023-03-18T09:40:50;100166.19;;;6.06;100.00
24825;BME280;12910;57.690;11.974;2023-03-18T09:43:46;100174.00;;;6.12;100.00
24825;BME280;12910;57.690;11.974;2023-03-18T09:46:34;100178.34;;;6.16;100.00
24825;BME280;12910;57.690;11.974;2023-03-18T09:54:41;100187.53;;;6.11;100.00
24825;BME280;12910;57.690;11.974;2023-03-18T09:57:18;100184.91;;;6.08;100.00
24825;BME280;12910;57.690;11.974;2023-03-18T09:59:52;100193.50;;;6.12;100.00
24825;BME280;12910;57.690;11.974;2023-03-18T10:02:29;100196.00;;;6.10;100.00
24825;BME280;12910;57.690;11.974;2023-03-18T10:05:00;100194.28;;;6.09;100.00
24825;BME280;12910;57.690;11.974;2023-03-18T10:07:31;100196.97;;;6.15;100.00
24825;BME280;12910;57.690;11.974;2023-03-18T10:10:05;100198.75;;;6.18;100.00
24825;BME280;12910;57.690;11.974;2023-03-18T10:12:35;100193.72;;;6.19;100.00
24825;BME280;12910;57.690;11.974;2023-03-18T10:15:25;100201.50;;;6.26;100.00
24825;BME280;12910;57.690;11.974;2023-03-18T10:23:43;100195.06;;;6.40;100.00
24825;BME280;12910;57.690;11.974;2023-03-18T10:26:46;100201.91;;;6.41;100.00
24825;BME280;12910;57.690;11.974;2023-03-18T10:34:39;100199.94;;;6.31;100.00
24825;BME280;12910;57.690;11.974;2023-03-18T10:39:58;100188.09;;;6.33;100.00
24825;BME280;12910;57.690;11.974;2023-03-18T10:42:26;100189.03;;;6.35;100.00
24825;BME280;12910;57.690;11.974;2023-03-18T10:47:36;100178.84;;;6.35;100.00
24825;BME280;12910;57.690;11.974;2023-03-18T10:52:50;100191.00;;;6.45;100.00
24825;BME280;12910;57.690;11.974;2023-03-18T10:55:22;100190.91;;;6.42;100.00
24825;BME280;12910;57.690;11.974;2023-03-18T10:57:49;100192.72;;;6.46;100.00
24825;BME280;12910;57.690;11.974;2023-03-18T11:00:28;100191.91;;;6.47;100.00
24825;BME280;12910;57.690;11.974;2023-03-18T11:02:54;100202.13;;;6.50;100.00
24825;BME280;12910;57.690;11.974;2023-03-18T11:05:26;100192.88;;;6.52;100.00
24825;BME280;12910;57.690;11.974;2023-03-18T11:08:07;100187.06;;;6.58;100.00
24825;BME280;12910;57.690;11.974;2023-03-18T11:10:45;100185.41;;;6.59;100.00
24825;BME280;12910;57.690;11.974;2023-03-18T11:13:18;100198.25;;;6.63;100.00
24825;BME280;12910;57.690;11.974;2023-03-18T11:15:51;100199.09;;;6.64;100.00
24825;BME280;12910;57.690;11.974;2023-03-18T11:18:22;100193.19;;;6.65;100.00
24825;BME280;12910;57.690;11.974;2023-03-18T11:20:56;100197.47;;;6.67;100.00
24825;BME280;12910;57.690;11.974;2023-03-18T11:26:24;100195.75;;;6.66;100.00
24825;BME280;12910;57.690;11.974;2023-03-18T11:28:55;100193.28;;;6.69;100.00
24825;BME280;12910;57.690;11.974;2023-03-18T11:31:21;100200.16;;;6.72;100.00
24825;BME280;12910;57.690;11.974;2023-03-18T11:33:47;100194.16;;;6.70;100.00
24825;BME280;12910;57.690;11.974;2023-03-18T11:36:16;100200.16;;;6.72;100.00
24825;BME280;12910;57.690;11.974;2023-03-18T11:38:43;100195.06;;;6.74;100.00
24825;BME280;12910;57.690;11.974;2023-03-18T11:41:37;100187.50;;;6.75;100.00
24825;BME280;12910;57.690;11.974;2023-03-18T11:44:15;100192.59;;;6.75;100.00
24825;BME280;12910;57.690;11.974;2023-03-18T11:46:46;100196.09;;;6.80;100.00
24825;BME280;12910;57.690;11.974;2023-03-18T11:49:15;100197.75;;;6.78;100.00
24825;BME280;12910;57.690;11.974;2023-03-18T11:52:13;100201.19;;;6.80;100.00
24825;BME280;12910;57.690;11.974;2023-03-18T11:55:11;100201.19;;;6.80;100.00
24825;BME280;12910;57.690;11.974;2023-03-18T12:00:31;100195.44;;;6.88;100.00
24825;BME280;12910;57.690;11.974;2023-03-18T12:06:15;100211.13;;;7.05;100.00
24825;BME280;12910;57.690;11.974;2023-03-18T12:08:50;100198.44;;;7.06;100.00
24825;BME280;12910;57.690;11.974;2023-03-18T12:14:32;100217.91;;;7.04;100.00
24825;BME280;12910;57.690;11.974;2023-03-18T12:19:49;100202.94;;;7.16;100.00
24825;BME280;12910;57.690;11.974;2023-03-18T12:28:08;100204.91;;;7.30;100.00
24825;BME280;12910;57.690;11.974;2023-03-18T12:38:37;100205.69;;;7.26;100.00
24825;BME280;12910;57.690;11.974;2023-03-18T12:41:30;100204.72;;;7.22;100.00
24825;BME280;12910;57.690;11.974;2023-03-18T12:47:08;100198.66;;;7.15;100.00
24825;BME280;12910;57.690;11.974;2023-03-18T12:49:38;100205.69;;;7.26;100.00
24825;BME280;12910;57.690;11.974;2023-03-18T12:52:08;100204.09;;;7.31;100.00
24825;BME280;12910;57.690;11.974;2023-03-18T12:54:43;100201.56;;;7.32;100.00
24825;BME280;12910;57.690;11.974;2023-03-18T12:57:19;100183.47;;;7.22;100.00
24825;BME280;12910;57.690;11.974;2023-03-18T12:59:53;100200.03;;;7.39;100.00
24825;BME280;12910;57.690;11.974;2023-03-18T13:05:39;100198.50;;;7.47;100.00
24825;BME280;12910;57.690;11.974;2023-03-18T13:10:37;100201.97;;;7.51;100.00
24825;BME280;12910;57.690;11.974;2023-03-18T13:13:06;100200.13;;;7.44;100.00
24825;BME280;12910;57.690;11.974;2023-03-18T13:15:37;100198.41;;;7.43;100.00
24825;BME280;12910;57.690;11.974;2023-03-18T13:20:52;100196.53;;;7.34;100.00
24825;BME280;12910;57.690;11.974;2023-03-18T13:23:42;100199.13;;;7.37;100.00
24825;BME280;12910;57.690;11.974;2023-03-18T13:26:45;100188.03;;;7.35;100.00
24825;BME280;12910;57.690;11.974;2023-03-18T13:29:33;100199.91;;;7.35;100.00
24825;BME280;12910;57.690;11.974;2023-03-18T13:34:58;100217.72;;;7.33;100.00
24825;BME280;12910;57.690;11.974;2023-03-18T13:37:37;100222.03;;;7.36;100.00
24825;BME280;12910;57.690;11.974;2023-03-18T13:43:02;100219.47;;;7.34;100.00
24825;BME280;12910;57.690;11.974;2023-03-18T13:45:37;100230.59;;;7.38;100.00
24825;BME280;12910;57.690;11.974;2023-03-18T13:48:10;100224.66;;;7.39;100.00
24825;BME280;12910;57.690;11.974;2023-03-18T13:50:39;100231.44;;;7.38;100.00
24825;BME280;12910;57.690;11.974;2023-03-18T13:53:18;100229.03;;;7.44;100.00
24825;BME280;12910;57.690;11.974;2023-03-18T13:56:24;100232.53;;;7.49;100.00
24825;BME280;12910;57.690;11.974;2023-03-18T14:06:37;100238.75;;;7.61;100.00
24825;BME280;12910;57.690;11.974;2023-03-18T14:09:44;100239.59;;;7.61;100.00
24825;BME280;12910;57.690;11.974;2023-03-18T14:12:20;100222.22;;;7.43;100.00
24825;BME280;12910;57.690;11.974;2023-03-18T14:14:55;100239.38;;;7.51;100.00